createdAt,value
2023-05-21T00:02:23.666Z,16.81
2023-05-21T00:04:53.227Z,16.69
2023-05-21T00:07:23.283Z,16.53
2023-05-21T00:09:50.669Z,16.66
2023-05-21T00:12:17.637Z,16.70
2023-05-21T00:14:47.159Z,16.66
2023-05-21T00:17:14.402Z,16.67
2023-05-21T00:19:41.610Z,16.67
2023-05-21T00:22:11.131Z,16.56
2023-05-21T00:24:38.156Z,16.53
2023-05-21T00:27:05.379Z,16.56
2023-05-21T00:29:32.482Z,16.43
2023-05-21T00:32:01.746Z,16.49
2023-05-21T00:34:31.105Z,16.38
2023-05-21T00:37:02.854Z,16.40
2023-05-21T00:39:29.899Z,16.60
2023-05-21T00:41:57.131Z,16.55
2023-05-21T00:44:25.381Z,16.46
2023-05-21T00:46:57.498Z,16.39
2023-05-21T00:49:29.404Z,16.36
2023-05-21T00:52:01.523Z,16.34
2023-05-21T00:54:28.911Z,16.36
2023-05-21T00:56:56.844Z,16.16
2023-05-21T00:59:24.386Z,16.18
2023-05-21T01:01:56.211Z,16.28
2023-05-21T01:04:26.519Z,16.20
2023-05-21T01:06:58.517Z,16.25
2023-05-21T01:09:27.036Z,16.21
2023-05-21T01:11:57.629Z,16.33
2023-05-21T01:14:25.458Z,16.21
2023-05-21T01:16:53.695Z,15.93
2023-05-21T01:19:23.710Z,16.10
2023-05-21T01:22:00.883Z,16.07
2023-05-21T01:24:31.479Z,15.96
2023-05-21T01:27:06.617Z,15.82
2023-05-21T01:29:34.194Z,15.88
2023-05-21T01:32:45.628Z,15.89
2023-05-21T01:35:21.583Z,16.01
2023-05-21T01:38:13.384Z,15.89
2023-05-21T01:41:07.198Z,15.86
2023-05-21T01:43:44.486Z,15.77
2023-05-21T01:46:20.495Z,15.82
2023-05-21T01:48:53.531Z,15.91
2023-05-21T01:51:26.138Z,15.81
2023-05-21T01:53:53.086Z,15.89
2023-05-21T01:56:23.071Z,15.67
2023-05-21T01:58:50.226Z,15.80
2023-05-21T02:01:20.296Z,15.73
2023-05-21T02:03:47.347Z,15.49
2023-05-21T02:06:14.389Z,15.53
2023-05-21T02:08:45.602Z,15.49
2023-05-21T02:11:14.885Z,15.49
2023-05-21T02:13:43.157Z,15.43
2023-05-21T02:16:11.813Z,15.44
2023-05-21T02:18:39.449Z,15.31
2023-05-21T02:21:11.530Z,15.46
2023-05-21T02:23:38.600Z,15.38
2023-05-21T02:26:05.756Z,15.54
2023-05-21T02:28:34.134Z,15.41
2023-05-21T02:31:04.171Z,15.52
2023-05-21T02:33:31.366Z,15.44
2023-05-21T02:35:58.555Z,15.42
2023-05-21T02:38:28.115Z,15.46
2023-05-21T02:40:55.093Z,15.37
2023-05-21T02:43:26.979Z,15.23
2023-05-21T02:45:54.433Z,15.21
2023-05-21T02:48:21.678Z,15.33
2023-05-21T02:50:48.781Z,15.26
2023-05-21T02:53:16.444Z,15.36
2023-05-21T02:55:45.673Z,15.43
2023-05-21T02:58:13.569Z,15.13
2023-05-21T03:00:41.060Z,15.15
2023-05-21T03:03:13.734Z,15.22
2023-05-21T03:05:41.344Z,15.07
2023-05-21T03:08:08.269Z,14.96
2023-05-21T03:10:37.781Z,15.04
2023-05-21T03:13:09.468Z,15.17
2023-05-21T03:15:38.815Z,14.79
2023-05-21T03:18:06.216Z,14.82
2023-05-21T03:20:43.555Z,14.77
2023-05-21T03:23:14.777Z,14.79
2023-05-21T03:25:43.527Z,14.93
2023-05-21T03:28:15.124Z,15.13
2023-05-21T03:30:46.273Z,14.99
2023-05-21T03:33:18.622Z,14.79
2023-05-21T03:35:45.605Z,14.91
2023-05-21T03:38:15.171Z,14.95
2023-05-21T03:40:44.720Z,15.13
2023-05-21T03:43:11.765Z,15.16
2023-05-21T03:45:39.856Z,15.09
2023-05-21T03:48:07.920Z,15.19
2023-05-21T03:50:37.664Z,15.28
2023-05-21T03:53:04.693Z,15.37
2023-05-21T03:55:31.627Z,15.27
2023-05-21T03:58:00.808Z,15.24
2023-05-21T04:00:27.960Z,15.36
2023-05-21T04:02:57.703Z,15.35
2023-05-21T04:05:24.950Z,15.21
2023-05-21T04:07:52.515Z,15.43
2023-05-21T04:10:23.085Z,15.50
2023-05-21T04:12:54.925Z,15.45
2023-05-21T04:15:22.069Z,15.44
2023-05-21T04:17:50.178Z,15.58
2023-05-21T04:20:17.388Z,15.53
2023-05-21T04:22:44.491Z,15.66
2023-05-21T04:25:13.828Z,15.80
2023-05-21T04:27:42.719Z,15.76
2023-05-21T04:30:14.348Z,15.80
2023-05-21T04:32:45.962Z,15.72
2023-05-21T04:35:15.135Z,15.46
2023-05-21T04:37:42.419Z,15.80
2023-05-21T04:40:10.592Z,15.90
2023-05-21T04:42:37.545Z,16.06
2023-05-21T04:45:05.104Z,15.99
2023-05-21T04:47:35.481Z,16.09
2023-05-21T04:50:07.688Z,16.27
2023-05-21T04:52:38.400Z,16.27
2023-05-21T04:55:06.513Z,16.24
2023-05-21T04:57:35.942Z,16.36
2023-05-21T05:00:06.145Z,16.50
2023-05-21T05:02:33.120Z,16.15
2023-05-21T05:05:05.073Z,16.21
2023-05-21T05:07:34.192Z,16.32
2023-05-21T05:10:03.670Z,16.51
2023-05-21T05:12:30.652Z,16.56
2023-05-21T05:14:59.684Z,16.48
2023-05-21T05:17:28.793Z,16.48
2023-05-21T05:19:55.718Z,16.52
2023-05-21T05:22:22.715Z,16.58
2023-05-21T05:24:49.679Z,16.61
2023-05-21T05:27:18.000Z,16.82
2023-05-21T05:29:47.727Z,16.99
2023-05-21T05:32:14.740Z,16.68
2023-05-21T05:34:45.722Z,16.45
2023-05-21T05:37:15.792Z,16.36
2023-05-21T05:39:42.740Z,16.58
2023-05-21T05:42:09.658Z,16.83
2023-05-21T05:44:39.133Z,16.74
2023-05-21T05:47:10.677Z,17.10
2023-05-21T05:49:37.977Z,17.18
2023-05-21T05:52:05.833Z,17.28
2023-05-21T05:54:33.240Z,17.32
2023-05-21T05:57:00.346Z,17.40
2023-05-21T05:59:27.467Z,17.33
2023-05-21T06:01:54.549Z,17.61
2023-05-21T06:04:24.054Z,17.81
2023-05-21T06:06:52.384Z,18.10
2023-05-21T06:09:19.330Z,18.48
2023-05-21T06:11:48.812Z,18.31
2023-05-21T06:14:17.981Z,18.42
2023-05-21T06:16:44.947Z,18.42
2023-05-21T06:19:11.921Z,18.58
2023-05-21T06:21:38.919Z,18.81
2023-05-21T06:24:06.588Z,18.97
2023-05-21T06:26:33.951Z,19.13
2023-05-21T06:29:00.993Z,19.57
2023-05-21T06:31:33.180Z,19.75
2023-05-21T06:34:01.130Z,19.70
2023-05-21T06:36:30.358Z,19.89
2023-05-21T06:38:59.819Z,20.27
2023-05-21T06:41:29.227Z,20.23
2023-05-21T06:44:00.897Z,20.15
2023-05-21T06:46:30.217Z,20.00
2023-05-21T06:48:57.312Z,20.57
2023-05-21T06:51:27.582Z,20.89
2023-05-21T06:53:54.792Z,20.90
2023-05-21T06:56:22.073Z,21.11
2023-05-21T06:58:51.688Z,21.39
2023-05-21T07:01:22.486Z,20.68
2023-05-21T07:03:52.946Z,20.76
2023-05-21T07:06:19.933Z,20.79
2023-05-21T07:08:49.837Z,21.12
2023-05-21T07:11:16.937Z,21.17
2023-05-21T07:13:44.035Z,20.55
2023-05-21T07:16:11.345Z,20.14
2023-05-21T07:18:38.520Z,20.87
2023-05-21T07:21:05.480Z,21.44
2023-05-21T07:23:35.201Z,21.98
2023-05-21T07:26:02.305Z,21.80
2023-05-21T07:28:29.308Z,22.11
2023-05-21T07:30:59.156Z,22.22
2023-05-21T07:33:28.926Z,21.77
2023-05-21T07:35:56.180Z,22.06
2023-05-21T07:38:23.302Z,22.46
2023-05-21T07:40:50.411Z,22.73
2023-05-21T07:43:19.438Z,23.43
2023-05-21T07:45:52.065Z,23.06
2023-05-21T07:48:21.926Z,23.41
2023-05-21T07:50:49.760Z,24.01
2023-05-21T07:53:16.883Z,24.11
2023-05-21T07:55:48.062Z,24.15
2023-05-21T07:58:20.869Z,23.77
2023-05-21T08:00:48.377Z,23.83
2023-05-21T08:03:19.242Z,24.05
2023-05-21T08:05:52.484Z,24.34
2023-05-21T08:08:26.552Z,24.92
2023-05-21T08:10:53.622Z,25.09
2023-05-21T08:13:20.866Z,24.84
2023-05-21T08:15:51.256Z,24.50
2023-05-21T08:18:19.822Z,24.51
2023-05-21T08:20:46.716Z,24.50
2023-05-21T08:23:13.814Z,24.53
2023-05-21T08:25:43.350Z,24.59
2023-05-21T08:28:10.317Z,24.54
2023-05-21T08:30:39.854Z,24.85
2023-05-21T08:33:09.629Z,24.85
2023-05-21T08:35:36.943Z,24.60
2023-05-21T08:38:08.687Z,24.85
2023-05-21T08:40:41.506Z,25.18
2023-05-21T08:43:13.946Z,25.05
2023-05-21T08:45:45.282Z,25.31
2023-05-21T08:48:13.181Z,25.48
2023-05-21T08:50:41.501Z,25.59
2023-05-21T08:53:15.871Z,25.45
2023-05-21T08:55:57.543Z,25.61
2023-05-21T08:58:24.892Z,25.36
2023-05-21T09:00:54.652Z,25.90
2023-05-21T09:03:24.931Z,25.84
2023-05-21T09:05:52.385Z,26.24
2023-05-21T09:08:31.508Z,26.07
2023-05-21T09:11:01.252Z,26.81
2023-05-21T09:13:32.123Z,27.01
2023-05-21T09:16:01.822Z,26.82
2023-05-21T09:18:33.262Z,27.14
2023-05-21T09:21:31.426Z,27.08
2023-05-21T09:24:00.571Z,26.98
2023-05-21T09:26:27.814Z,26.99
2023-05-21T09:29:00.013Z,27.30
2023-05-21T09:31:27.761Z,27.74
2023-05-21T09:33:57.454Z,27.69
2023-05-21T09:36:25.170Z,28.05
2023-05-21T09:38:55.851Z,27.54
2023-05-21T09:41:38.126Z,27.71
2023-05-21T09:44:05.959Z,27.90
2023-05-21T09:46:41.483Z,27.93
2023-05-21T09:49:26.303Z,28.07
2023-05-21T09:51:59.858Z,28.09
2023-05-21T09:54:33.221Z,28.45
2023-05-21T09:57:04.032Z,28.59
2023-05-21T09:59:44.155Z,28.70
2023-05-21T10:02:21.124Z,28.28
2023-05-21T10:04:57.471Z,27.72
2023-05-21T10:07:26.471Z,28.42
2023-05-21T10:09:59.136Z,28.27
2023-05-21T10:12:30.628Z,28.67
2023-05-21T10:15:01.913Z,29.00
2023-05-21T10:17:32.911Z,28.91
2023-05-21T10:20:01.711Z,28.70
2023-05-21T10:22:31.212Z,29.15
2023-05-21T10:24:59.057Z,29.56
2023-05-21T10:27:32.662Z,29.76
2023-05-21T10:30:05.973Z,29.94
2023-05-21T10:32:33.661Z,29.90
2023-05-21T10:35:02.466Z,29.79
2023-05-21T10:37:30.045Z,29.63
2023-05-21T10:39:57.553Z,29.80
2023-05-21T10:42:59.103Z,30.10
2023-05-21T10:45:32.652Z,30.43
2023-05-21T10:48:19.431Z,30.71
2023-05-21T10:51:10.821Z,30.84
2023-05-21T10:53:47.046Z,30.65
2023-05-21T10:56:41.765Z,30.76
2023-05-21T10:59:39.466Z,30.43
2023-05-21T11:02:07.719Z,30.30
2023-05-21T11:04:39.702Z,29.22
2023-05-21T11:07:08.897Z,28.85
2023-05-21T11:09:40.912Z,29.49
2023-05-21T11:12:13.022Z,29.32
2023-05-21T11:14:42.942Z,29.29
2023-05-21T11:17:09.870Z,29.10
2023-05-21T11:19:43.456Z,29.89
2023-05-21T11:22:24.590Z,30.47
2023-05-21T11:24:53.421Z,30.53
2023-05-21T11:27:40.944Z,30.49
2023-05-21T11:30:10.827Z,30.04
2023-05-21T11:33:07.805Z,29.94
2023-05-21T11:35:56.322Z,29.32
2023-05-21T11:38:23.300Z,30.02
2023-05-21T11:40:55.353Z,30.59
2023-05-21T11:43:28.018Z,30.82
2023-05-21T11:45:55.651Z,30.87
2023-05-21T11:48:27.379Z,30.90
2023-05-21T11:50:58.034Z,30.91
2023-05-21T11:53:29.921Z,30.94
2023-05-21T11:55:59.767Z,30.88
2023-05-21T11:58:34.373Z,31.24
2023-05-21T12:01:01.282Z,31.89
2023-05-21T12:03:37.483Z,32.03
2023-05-21T12:06:10.344Z,31.78
2023-05-21T12:08:39.879Z,31.09
2023-05-21T12:11:06.834Z,30.50
2023-05-21T12:13:34.087Z,30.77
2023-05-21T12:16:06.780Z,30.53
2023-05-21T12:18:34.150Z,31.34
2023-05-21T12:21:01.200Z,31.44
2023-05-21T12:23:32.711Z,31.63
2023-05-21T12:26:04.638Z,32.17
2023-05-21T12:28:32.422Z,32.01
2023-05-21T12:30:59.390Z,32.33
2023-05-21T12:33:36.824Z,32.59
2023-05-21T12:36:04.373Z,32.37
2023-05-21T12:38:31.840Z,32.54
2023-05-21T12:41:07.881Z,31.86
2023-05-21T12:43:40.312Z,30.86
2023-05-21T12:46:14.762Z,29.98
2023-05-21T12:48:48.761Z,30.24
2023-05-21T12:51:15.961Z,30.25
2023-05-21T12:53:46.368Z,30.51
2023-05-21T12:56:19.293Z,30.38
2023-05-21T12:58:50.704Z,30.57
2023-05-21T13:01:17.817Z,29.81
2023-05-21T13:03:45.614Z,29.76
2023-05-21T13:06:13.577Z,29.92
2023-05-21T13:08:42.701Z,30.29
2023-05-21T13:11:14.310Z,30.85
2023-05-21T13:13:43.847Z,30.77
2023-05-21T13:16:16.509Z,31.06
2023-05-21T13:18:43.464Z,31.35
2023-05-21T13:21:12.885Z,31.21
2023-05-21T13:23:39.899Z,31.03
2023-05-21T13:26:06.876Z,31.05
2023-05-21T13:28:36.352Z,30.81
2023-05-21T13:31:05.986Z,30.58
2023-05-21T13:33:35.705Z,30.20
2023-05-21T13:36:02.949Z,30.40
2023-05-21T13:38:29.947Z,30.38
2023-05-21T13:41:02.117Z,30.75
2023-05-21T13:43:29.209Z,31.04
2023-05-21T13:45:56.237Z,31.41
2023-05-21T13:48:23.184Z,30.95
2023-05-21T13:50:52.785Z,30.60
2023-05-21T13:53:22.055Z,30.04
2023-05-21T13:55:49.419Z,29.94
2023-05-21T13:58:16.468Z,30.34
2023-05-21T14:00:43.504Z,30.63
2023-05-21T14:03:12.967Z,30.62
2023-05-21T14:05:42.626Z,30.46
2023-05-21T14:08:14.399Z,30.08
2023-05-21T14:10:43.979Z,29.73
2023-05-21T14:13:19.726Z,29.35
2023-05-21T14:15:48.427Z,29.52
2023-05-21T14:18:15.723Z,29.47
2023-05-21T14:20:45.196Z,29.61
2023-05-21T14:23:15.113Z,30.04
2023-05-21T14:25:44.701Z,30.22
2023-05-21T14:28:12.112Z,30.09
2023-05-21T14:30:39.186Z,30.26
2023-05-21T14:33:06.428Z,30.34
2023-05-21T14:35:33.660Z,29.95
2023-05-21T14:38:05.582Z,30.53
2023-05-21T14:40:32.671Z,30.13
2023-05-21T14:42:59.669Z,30.20
2023-05-21T14:45:29.893Z,30.69
2023-05-21T14:47:56.960Z,30.43
2023-05-21T14:50:26.027Z,29.71
2023-05-21T14:52:53.129Z,30.02
2023-05-21T14:55:25.172Z,29.66
2023-05-21T14:57:56.615Z,30.20
2023-05-21T15:00:23.553Z,30.06
2023-05-21T15:02:50.922Z,30.01
2023-05-21T15:05:18.615Z,30.40
2023-05-21T15:07:47.138Z,30.64
2023-05-21T15:10:18.798Z,30.28
2023-05-21T15:12:50.526Z,30.17
2023-05-21T15:15:17.938Z,30.01
2023-05-21T15:17:44.992Z,30.06
2023-05-21T15:20:12.135Z,30.15
2023-05-21T15:22:39.523Z,29.86
2023-05-21T15:25:07.376Z,30.17
2023-05-21T15:27:34.842Z,29.94
2023-05-21T15:30:02.549Z,30.28
2023-05-21T15:32:31.334Z,30.29
2023-05-21T15:35:00.569Z,29.78
2023-05-21T15:37:33.392Z,29.90
2023-05-21T15:40:00.816Z,29.63
2023-05-21T15:42:31.785Z,29.70
2023-05-21T15:45:00.138Z,29.62
2023-05-21T15:47:29.804Z,29.70
2023-05-21T15:49:58.868Z,29.70
2023-05-21T15:52:28.546Z,29.81
2023-05-21T15:54:58.098Z,29.39
2023-05-21T15:57:25.412Z,29.30
2023-05-21T15:59:54.930Z,29.56
2023-05-21T16:02:22.150Z,29.67
2023-05-21T16:04:51.941Z,29.76
2023-05-21T16:07:19.865Z,29.50
2023-05-21T16:09:46.990Z,29.30
2023-05-21T16:12:16.194Z,29.22
2023-05-21T16:14:43.354Z,28.87
2023-05-21T16:17:10.431Z,28.84
2023-05-21T16:19:37.539Z,29.17
2023-05-21T16:22:04.767Z,28.98
2023-05-21T16:24:31.769Z,29.40
2023-05-21T16:27:03.235Z,29.81
2023-05-21T16:29:32.712Z,29.95
2023-05-21T16:31:59.775Z,29.45
2023-05-21T16:34:26.998Z,29.50
2023-05-21T16:36:57.115Z,29.58
2023-05-21T16:39:26.703Z,29.71
2023-05-21T16:41:59.660Z,29.25
2023-05-21T16:44:29.460Z,29.33
2023-05-21T16:47:02.343Z,29.17
2023-05-21T16:49:29.282Z,28.73
2023-05-21T16:51:58.210Z,28.51
2023-05-21T16:54:25.723Z,28.87
2023-05-21T16:56:54.590Z,28.97
2023-05-21T16:59:23.255Z,29.15
2023-05-21T17:01:50.881Z,28.88
2023-05-21T17:04:18.066Z,28.80
2023-05-21T17:06:47.361Z,28.53
2023-05-21T17:09:18.045Z,28.53
2023-05-21T17:11:50.410Z,28.70
2023-05-21T17:14:30.328Z,28.60
2023-05-21T17:17:03.007Z,28.84
2023-05-21T17:19:30.144Z,29.04
2023-05-21T17:21:57.347Z,29.06
2023-05-21T17:24:24.673Z,28.80
2023-05-21T17:26:53.618Z,28.97
2023-05-21T17:29:23.322Z,28.80
2023-05-21T17:31:52.927Z,28.79
2023-05-21T17:34:20.023Z,28.73
2023-05-21T17:36:47.064Z,28.82
2023-05-21T17:39:18.385Z,28.99
2023-05-21T17:41:49.514Z,29.12
2023-05-21T17:44:18.165Z,28.92
2023-05-21T17:46:47.370Z,28.98
2023-05-21T17:49:15.189Z,28.83
2023-05-21T17:51:45.507Z,28.85
2023-05-21T17:54:13.420Z,28.78
2023-05-21T17:56:40.930Z,28.93
2023-05-21T17:59:14.475Z,28.56
2023-05-21T18:01:48.758Z,28.63
2023-05-21T18:04:21.329Z,28.50
2023-05-21T18:06:51.812Z,28.73
2023-05-21T18:09:18.816Z,28.89
2023-05-21T18:11:45.963Z,28.59
2023-05-21T18:14:17.925Z,28.57
2023-05-21T18:16:47.482Z,28.75
2023-05-21T18:19:14.730Z,28.65
2023-05-21T18:21:41.856Z,28.71
2023-05-21T18:24:11.692Z,28.52
2023-05-21T18:26:43.368Z,28.51
2023-05-21T18:29:13.174Z,28.63
2023-05-21T18:31:40.575Z,28.54
2023-05-21T18:34:07.697Z,28.54
2023-05-21T18:36:38.681Z,28.47
2023-05-21T18:39:07.900Z,28.37
2023-05-21T18:41:35.419Z,28.42
2023-05-21T18:44:02.774Z,28.37
2023-05-21T18:46:30.004Z,28.44
2023-05-21T18:49:00.842Z,28.28
2023-05-21T18:51:27.829Z,28.13
2023-05-21T18:53:54.996Z,28.12
2023-05-21T18:56:24.576Z,27.78
2023-05-21T18:58:51.684Z,27.67
2023-05-21T19:01:24.098Z,27.51
2023-05-21T19:03:51.153Z,27.42
2023-05-21T19:06:25.051Z,27.19
2023-05-21T19:08:53.034Z,27.11
2023-05-21T19:11:23.594Z,26.83
2023-05-21T19:13:53.180Z,26.61
2023-05-21T19:16:22.784Z,26.57
2023-05-21T19:18:51.976Z,26.76
2023-05-21T19:21:19.450Z,26.73
2023-05-21T19:23:53.087Z,26.67
2023-05-21T19:26:25.430Z,26.51
2023-05-21T19:28:55.489Z,26.33
2023-05-21T19:31:23.689Z,26.19
2023-05-21T19:33:51.265Z,26.10
2023-05-21T19:36:18.838Z,26.03
2023-05-21T19:38:50.395Z,25.95
2023-05-21T19:41:21.999Z,25.90
2023-05-21T19:43:49.400Z,25.74
2023-05-21T19:46:19.814Z,25.86
2023-05-21T19:48:50.264Z,25.71
2023-05-21T19:51:17.456Z,25.89
2023-05-21T19:53:47.089Z,26.01
2023-05-21T19:56:17.310Z,25.75
2023-05-21T19:58:47.455Z,25.61
2023-05-21T20:01:17.917Z,25.47
2023-05-21T20:03:47.752Z,25.61
2023-05-21T20:06:19.096Z,25.56
2023-05-21T20:08:46.556Z,25.40
2023-05-21T20:11:13.987Z,25.35
2023-05-21T20:13:42.182Z,25.48
2023-05-21T20:16:10.595Z,25.34
2023-05-21T20:18:38.012Z,25.22
2023-05-21T20:21:06.671Z,25.26
2023-05-21T20:23:36.548Z,25.25
2023-05-21T20:26:03.782Z,25.30
2023-05-21T20:28:31.178Z,25.30
2023-05-21T20:30:58.544Z,25.29
2023-05-21T20:33:29.611Z,25.17
2023-05-21T20:35:56.984Z,24.91
2023-05-21T20:38:25.900Z,25.10
2023-05-21T20:40:57.668Z,25.24
2023-05-21T20:43:25.464Z,25.24
2023-05-21T20:45:59.704Z,25.23
2023-05-21T20:48:31.908Z,25.05
2023-05-21T20:51:03.336Z,25.08
2023-05-21T20:53:31.336Z,25.07
2023-05-21T20:56:01.655Z,24.88
2023-05-21T20:58:29.078Z,24.86
2023-05-21T21:01:01.954Z,24.73
2023-05-21T21:03:29.974Z,24.77
2023-05-21T21:06:01.131Z,24.66
2023-05-21T21:08:31.280Z,24.58
2023-05-21T21:10:58.260Z,24.61
2023-05-21T21:13:27.383Z,24.82
2023-05-21T21:15:56.843Z,24.87
2023-05-21T21:18:23.889Z,24.58
2023-05-21T21:20:51.190Z,24.54
2023-05-21T21:23:21.048Z,24.44
2023-05-21T21:25:47.969Z,24.42
2023-05-21T21:28:15.048Z,24.47
2023-05-21T21:30:42.378Z,24.44
2023-05-21T21:33:09.828Z,24.41
2023-05-21T21:35:36.920Z,24.34
2023-05-21T21:38:06.692Z,24.32
2023-05-21T21:40:36.131Z,24.27
2023-05-21T21:43:05.493Z,24.06
2023-05-21T21:45:35.033Z,24.02
2023-05-21T21:48:02.183Z,23.99
2023-05-21T21:50:29.318Z,23.85
2023-05-21T21:52:57.248Z,23.88
2023-05-21T21:55:26.650Z,23.83
2023-05-21T21:57:53.722Z,23.81
2023-05-21T22:00:21.101Z,23.81
2023-05-21T22:02:50.237Z,23.81
2023-05-21T22:05:17.452Z,23.95
2023-05-21T22:07:46.758Z,23.93
2023-05-21T22:10:15.938Z,23.91
2023-05-21T22:12:43.800Z,23.94
2023-05-21T22:15:28.601Z,23.89
2023-05-21T22:17:58.135Z,23.82
2023-05-21T22:20:29.975Z,23.85
2023-05-21T22:22:57.980Z,23.81
2023-05-21T22:25:25.511Z,23.74
2023-05-21T22:27:56.993Z,23.76
2023-05-21T22:30:26.586Z,23.76
2023-05-21T22:32:53.789Z,23.87
2023-05-21T22:35:21.092Z,23.71
2023-05-21T22:37:48.551Z,23.79
2023-05-21T22:40:18.614Z,23.79
2023-05-21T22:42:47.131Z,23.63
2023-05-21T22:45:16.692Z,23.65
2023-05-21T22:47:46.551Z,23.50
2023-05-21T22:50:13.817Z,23.38
2023-05-21T22:52:44.047Z,23.33
2023-05-21T22:55:11.622Z,23.45
2023-05-21T22:57:43.520Z,23.33
2023-05-21T23:00:11.713Z,23.43
2023-05-21T23:02:41.343Z,23.42
2023-05-21T23:05:09.249Z,23.40
2023-05-21T23:07:36.359Z,23.46
2023-05-21T23:10:03.980Z,23.56
2023-05-21T23:12:30.973Z,23.46
2023-05-21T23:15:01.074Z,23.26
2023-05-21T23:17:28.061Z,23.14
2023-05-21T23:19:56.306Z,23.22
2023-05-21T23:22:23.230Z,23.12
2023-05-21T23:24:54.192Z,23.21
2023-05-21T23:27:24.010Z,23.16
2023-05-21T23:29:53.577Z,23.14
2023-05-21T23:32:20.768Z,22.88
2023-05-21T23:34:48.405Z,23.03
2023-05-21T23:37:20.948Z,23.10
2023-05-21T23:39:52.580Z,22.92
2023-05-21T23:42:19.909Z,22.84
2023-05-21T23:44:49.206Z,22.71
2023-05-21T23:47:18.868Z,22.79
2023-05-21T23:49:46.031Z,22.78
2023-05-21T23:52:17.289Z,22.80
2023-05-21T23:54:47.071Z,22.75
2023-05-21T23:57:14.332Z,22.60
2023-05-21T23:59:41.399Z,22.59
